Time;durP1;ratioP1;P1;durP2;ratioP2;P2;SDS_P1;SDS_P2;PMS_P1;PMS_P2;Temp;Humidity;BMP_temperature;BMP_pressure;BME280_temperature;BME280_humidity;BME280_pressure;Samples;Min_cycle;Max_cycle;Signal;HPM_P1;HPM_P2
2021/07/18 00:01:48;;;;;;;19.48;11.80;;;18.50;99.90;;;;;;1921925;73;21148;-77
2021/07/18 00:04:16;;;;;;;16.67;10.50;;;18.60;99.90;;;;;;1924293;73;21238;-76
2021/07/18 00:06:41;;;;;;;17.70;9.35;;;18.60;99.90;;;;;;1924082;74;21519;-77
2021/07/18 00:09:08;;;;;;;12.82;9.60;;;18.50;99.90;;;;;;1924060;74;21621;-77
2021/07/18 00:11:34;;;;;;;23.55;16.45;;;18.50;99.90;;;;;;1924320;73;21496;-77
2021/07/18 00:14:00;;;;;;;20.23;9.65;;;18.50;99.90;;;;;;1924156;73;21188;-77
2021/07/18 00:16:26;;;;;;;16.07;9.03;;;18.40;99.90;;;;;;1924440;73;21079;-77
2021/07/18 00:18:52;;;;;;;13.45;9.33;;;18.40;99.90;;;;;;1924415;74;21089;-76
2021/07/18 00:21:18;;;;;;;14.60;8.70;;;18.40;99.90;;;;;;1924357;73;21161;-77
2021/07/18 00:23:47;;;;;;;14.25;9.90;;;18.30;99.90;;;;;;1924342;74;21087;-76
2021/07/18 00:28:58;;;;;;;13.68;9.23;;;18.20;99.90;;;;;;1924169;74;21081;-77
2021/07/18 00:31:26;;;;;;;18.02;10.25;;;18.20;99.90;;;;;;1924058;74;21531;-77
2021/07/18 00:33:52;;;;;;;13.50;9.23;;;18.10;99.90;;;;;;1923941;74;21181;-77
2021/07/18 00:36:19;;;;;;;13.00;8.60;;;18.00;99.90;;;;;;1924079;74;21153;-77
2021/07/18 00:38:46;;;;;;;13.00;9.35;;;18.00;99.90;;;;;;1924080;74;21103;-77
2021/07/18 00:41:12;;;;;;;15.38;10.28;;;17.90;99.90;;;;;;1924403;74;21040;-77
2021/07/18 00:43:43;;;;;;;18.48;9.45;;;17.90;99.90;;;;;;1924415;73;21066;-76
2021/07/18 00:46:11;;;;;;;16.90;9.73;;;17.90;99.90;;;;;;1924304;74;21084;-77
2021/07/18 00:48:35;;;;;;;13.45;8.75;;;17.90;99.90;;;;;;1923615;74;21115;-78
2021/07/18 00:51:02;;;;;;;14.70;8.43;;;17.90;99.90;;;;;;1924214;74;21095;-77
2021/07/18 00:53:30;;;;;;;13.65;9.18;;;17.90;99.90;;;;;;1924310;74;21145;-77
2021/07/18 00:56:01;;;;;;;14.98;8.93;;;17.90;99.90;;;;;;1924189;74;21118;-77
2021/07/18 00:58:24;;;;;;;14.35;8.95;;;17.90;99.90;;;;;;1923529;74;21161;-76
2021/07/18 01:00:53;;;;;;;17.00;9.25;;;17.90;99.90;;;;;;1924255;74;21616;-77
2021/07/18 01:03:19;;;;;;;14.18;9.25;;;17.80;99.90;;;;;;1924206;73;21117;-77
2021/07/18 01:05:46;;;;;;;12.73;8.65;;;17.70;99.90;;;;;;1924164;74;21153;-77
2021/07/18 01:08:12;;;;;;;15.50;9.18;;;17.60;99.90;;;;;;1924197;74;21184;-77
2021/07/18 01:10:38;;;;;;;11.75;9.13;;;17.70;99.90;;;;;;1924077;74;21535;-77
2021/07/18 01:13:04;;;;;;;16.30;8.48;;;17.60;99.90;;;;;;1924126;73;21527;-78
2021/07/18 01:15:33;;;;;;;13.48;8.98;;;17.60;99.90;;;;;;1924239;74;21154;-76
2021/07/18 01:17:59;;;;;;;17.05;8.95;;;17.60;99.90;;;;;;1924262;74;21119;-77
2021/07/18 01:20:25;;;;;;;13.25;8.13;;;17.60;99.90;;;;;;1924386;74;21137;-77
2021/07/18 01:22:52;;;;;;;13.55;7.92;;;17.60;99.90;;;;;;1925800;73;21106;-76
2021/07/18 01:25:18;;;;;;;15.38;8.40;;;17.50;99.90;;;;;;1926934;74;21082;-78
2021/07/18 01:27:44;;;;;;;18.32;7.83;;;17.50;99.90;;;;;;1925786;73;21007;-75
2021/07/18 01:30:11;;;;;;;15.78;7.60;;;17.50;99.90;;;;;;1917226;74;21032;-77
2021/07/18 01:32:42;;;;;;;13.65;8.55;;;17.50;99.90;;;;;;1918368;74;21543;-77
2021/07/18 01:35:09;;;;;;;13.00;7.80;;;17.50;99.90;;;;;;1923706;73;21099;-78
2021/07/18 01:37:32;;;;;;;16.48;7.83;;;17.40;99.90;;;;;;1923476;74;21171;-78
2021/07/18 01:39:59;;;;;;;11.33;8.05;;;17.40;99.90;;;;;;1924327;73;21043;-77
2021/07/18 01:42:27;;;;;;;10.58;7.67;;;17.40;99.90;;;;;;1924128;74;21104;-77
2021/07/18 01:44:53;;;;;;;8.63;6.87;;;17.40;99.90;;;;;;1924066;74;21095;-77
2021/07/18 01:47:19;;;;;;;9.15;6.90;;;17.30;99.90;;;;;;1924089;74;21183;-76
2021/07/18 01:50:04;;;;;;;;;;;;;;;;;;;;;
2021/07/18 01:52:13;;;;;;;11.95;7.53;;;17.30;99.90;;;;;;1920312;74;21095;-78
2021/07/18 01:54:39;;;;;;;11.73;6.50;;;17.40;99.90;;;;;;1924294;74;21167;-76
2021/07/18 01:57:08;;;;;;;15.05;6.97;;;17.30;99.90;;;;;;1924006;73;21156;-76
2021/07/18 01:59:39;;;;;;;10.32;6.60;;;17.30;99.90;;;;;;1923895;73;21092;-77
2021/07/18 02:02:05;;;;;;;10.95;6.05;;;17.20;99.90;;;;;;1924176;73;21043;-77
2021/07/18 02:04:31;;;;;;;13.75;6.30;;;17.10;99.90;;;;;;1924116;74;21173;-76
2021/07/18 02:06:58;;;;;;;10.10;6.30;;;17.10;99.90;;;;;;1924141;74;21169;-77
2021/07/18 02:09:24;;;;;;;9.85;5.58;;;17.00;99.90;;;;;;1924190;73;21099;-79
2021/07/18 02:11:50;;;;;;;9.60;5.92;;;17.00;99.90;;;;;;1924074;73;21187;-78
2021/07/18 02:14:16;;;;;;;8.48;5.72;;;17.00;99.90;;;;;;1924162;74;21107;-77
2021/07/18 02:16:42;;;;;;;9.30;5.85;;;17.00;99.90;;;;;;1923978;74;21047;-77
2021/07/18 02:19:08;;;;;;;7.97;5.25;;;16.90;99.90;;;;;;1923993;73;21519;-77
2021/07/18 02:21:34;;;;;;;15.25;5.55;;;16.90;99.90;;;;;;1924145;74;21581;-77
2021/07/18 02:24:01;;;;;;;15.40;4.90;;;16.90;99.90;;;;;;1924150;74;21102;-78
2021/07/18 02:26:29;;;;;;;7.97;5.33;;;16.90;99.90;;;;;;1924100;74;21187;-77
2021/07/18 02:28:55;;;;;;;9.73;5.12;;;17.10;99.90;;;;;;1924178;74;21177;-77
2021/07/18 02:31:21;;;;;;;8.78;4.60;;;17.10;99.90;;;;;;1924090;74;21011;-77
2021/07/18 02:33:47;;;;;;;7.78;5.03;;;17.00;99.90;;;;;;1921533;74;21075;-76
2021/07/18 02:36:15;;;;;;;6.20;4.53;;;17.00;99.90;;;;;;1923224;74;21086;-77
2021/07/18 02:38:41;;;;;;;12.13;5.20;;;16.90;99.90;;;;;;1923825;73;21197;-78
2021/07/18 02:41:07;;;;;;;5.15;4.65;;;16.80;99.90;;;;;;1924323;74;21083;-78
2021/07/18 02:43:33;;;;;;;6.92;4.87;;;16.70;99.90;;;;;;1920235;73;21082;-78
2021/07/18 02:45:59;;;;;;;7.97;4.97;;;16.70;99.90;;;;;;1923613;74;21102;-78
2021/07/18 02:48:26;;;;;;;9.88;5.33;;;16.60;99.90;;;;;;1918598;74;21152;-77
2021/07/18 02:50:52;;;;;;;7.40;4.90;;;16.50;99.90;;;;;;1919955;74;21498;-78
2021/07/18 02:53:18;;;;;;;6.60;4.80;;;16.50;99.90;;;;;;1924090;74;21474;-76
2021/07/18 02:55:44;;;;;;;6.62;4.90;;;16.30;99.90;;;;;;1923989;74;21526;-77
2021/07/18 02:58:13;;;;;;;8.75;5.25;;;16.40;99.90;;;;;;1924272;73;21110;-77
2021/07/18 03:00:38;;;;;;;8.43;5.08;;;16.30;99.90;;;;;;1923798;73;21072;-77
2021/07/18 03:03:05;;;;;;;9.60;4.90;;;16.20;99.90;;;;;;1924097;74;21463;-77
2021/07/18 03:05:31;;;;;;;8.45;4.55;;;16.20;99.90;;;;;;1924111;74;21078;-77
2021/07/18 03:07:58;;;;;;;7.58;5.22;;;16.20;99.90;;;;;;1924201;73;21096;-77
2021/07/18 03:10:24;;;;;;;15.10;5.10;;;16.20;99.90;;;;;;1924122;73;21523;-77
2021/07/18 03:12:51;;;;;;;12.58;5.17;;;16.20;99.90;;;;;;1924168;73;21582;-77
2021/07/18 03:15:17;;;;;;;8.30;5.30;;;16.10;99.90;;;;;;1924257;74;21568;-78
2021/07/18 03:17:44;;;;;;;17.77;5.15;;;16.10;99.90;;;;;;1924292;74;21075;-78
2021/07/18 03:20:10;;;;;;;7.65;4.90;;;16.00;99.90;;;;;;1924300;73;21178;-78
2021/07/18 03:22:46;;;;;;;10.63;5.25;;;16.00;99.90;;;;;;1924431;74;21070;-77
2021/07/18 03:25:12;;;;;;;10.95;5.42;;;16.00;99.90;;;;;;1924294;74;21076;-77
2021/07/18 03:27:38;;;;;;;7.83;4.95;;;16.00;99.90;;;;;;1924440;73;21038;-77
2021/07/18 03:32:32;;;;;;;6.70;4.50;;;15.90;99.90;;;;;;1917288;74;21090;-77
2021/07/18 03:35:00;;;;;;;9.15;5.30;;;15.90;99.90;;;;;;1924285;73;21103;-77
2021/07/18 03:37:29;;;;;;;9.70;5.20;;;15.90;99.90;;;;;;1924038;74;21099;-77
2021/07/18 03:39:55;;;;;;;10.08;5.08;;;15.80;99.90;;;;;;1924187;74;21091;-77
2021/07/18 03:42:21;;;;;;;5.92;4.58;;;15.80;99.90;;;;;;1924109;74;21078;-77
2021/07/18 03:44:47;;;;;;;7.75;4.78;;;15.80;99.90;;;;;;1924147;74;21095;-77
2021/07/18 03:47:13;;;;;;;7.70;4.92;;;15.80;99.90;;;;;;1924085;74;21107;-77
2021/07/18 03:49:39;;;;;;;6.20;4.90;;;15.80;99.90;;;;;;1923914;74;21066;-78
2021/07/18 03:52:05;;;;;;;6.30;4.15;;;15.80;99.90;;;;;;1923859;74;21011;-78
2021/07/18 03:54:32;;;;;;;10.90;4.83;;;15.80;99.90;;;;;;1924062;74;21157;-78
2021/07/18 03:56:58;;;;;;;8.03;4.55;;;15.80;99.90;;;;;;1923873;74;21071;-77
2021/07/18 03:59:24;;;;;;;11.48;4.65;;;15.80;99.90;;;;;;1924222;74;21148;-76
2021/07/18 04:01:50;;;;;;;6.17;4.53;;;15.80;99.90;;;;;;1923914;73;21106;-77
2021/07/18 04:04:16;;;;;;;5.92;4.35;;;15.80;99.90;;;;;;1924190;74;21148;-77
2021/07/18 04:06:42;;;;;;;9.73;4.05;;;15.70;99.90;;;;;;1923905;73;21067;-77
2021/07/18 04:09:08;;;;;;;11.35;3.95;;;15.60;99.90;;;;;;1924119;74;21103;-77
2021/07/18 04:11:34;;;;;;;6.72;4.17;;;15.70;99.90;;;;;;1923928;74;21098;-77
2021/07/18 04:14:01;;;;;;;9.50;4.25;;;15.70;99.90;;;;;;1924190;73;21071;-77
2021/07/18 04:16:27;;;;;;;7.10;4.17;;;15.50;99.90;;;;;;1923914;73;21082;-77
2021/07/18 04:18:53;;;;;;;6.37;3.72;;;15.60;99.90;;;;;;1924074;74;21194;-76
2021/07/18 04:21:22;;;;;;;10.75;4.50;;;15.60;99.90;;;;;;1924084;74;21039;-77
2021/07/18 04:23:48;;;;;;;7.50;4.33;;;15.60;99.90;;;;;;1924092;74;21499;-76
2021/07/18 04:26:14;;;;;;;4.58;3.80;;;15.60;99.90;;;;;;1924017;74;21071;-76
2021/07/18 04:28:40;;;;;;;6.58;3.45;;;15.60;99.90;;;;;;1924033;74;21134;-76
2021/07/18 04:31:06;;;;;;;7.70;3.58;;;15.60;99.90;;;;;;1923992;74;21184;-76
2021/07/18 04:33:33;;;;;;;5.80;3.72;;;15.60;99.90;;;;;;1924008;74;21096;-77
2021/07/18 04:35:59;;;;;;;6.03;3.80;;;15.60;99.90;;;;;;1923963;74;21087;-76
2021/07/18 04:38:25;;;;;;;8.90;3.98;;;15.60;99.90;;;;;;1924010;74;21096;-77
2021/07/18 04:40:51;;;;;;;10.15;4.05;;;15.60;99.90;;;;;;1916224;74;21136;-77
2021/07/18 04:43:17;;;;;;;10.80;4.10;;;15.70;99.90;;;;;;1924145;74;21070;-76
2021/07/18 04:45:43;;;;;;;5.05;3.80;;;15.80;99.90;;;;;;1924091;74;21069;-77
2021/07/18 04:48:09;;;;;;;7.15;3.98;;;15.80;99.90;;;;;;1924020;74;21162;-77
2021/07/18 04:50:35;;;;;;;5.97;3.47;;;15.80;99.90;;;;;;1923970;74;21153;-77
2021/07/18 04:53:02;;;;;;;7.15;3.67;;;15.80;99.90;;;;;;1922211;74;21475;-78
2021/07/18 04:55:28;;;;;;;4.60;3.45;;;15.90;99.90;;;;;;1919176;74;21510;-76
2021/07/18 04:57:54;;;;;;;6.65;4.08;;;15.90;99.90;;;;;;1923212;73;21152;-75
2021/07/18 05:00:20;;;;;;;10.90;3.22;;;15.90;99.90;;;;;;1923657;74;21505;-76
2021/07/18 05:02:46;;;;;;;5.35;3.40;;;15.90;99.90;;;;;;1923599;74;21572;-76
2021/07/18 05:05:12;;;;;;;4.87;3.42;;;16.00;99.90;;;;;;1923641;74;21530;-76
2021/07/18 05:07:38;;;;;;;6.28;3.33;;;16.00;99.90;;;;;;1923837;74;21490;-75
2021/07/18 05:10:05;;;;;;;6.17;3.35;;;16.10;99.90;;;;;;1923627;73;21136;-76
2021/07/18 05:12:31;;;;;;;6.08;3.10;;;16.10;99.90;;;;;;1923789;74;21059;-76
2021/07/18 05:14:57;;;;;;;4.72;3.20;;;16.20;99.90;;;;;;1923188;74;21099;-76
2021/07/18 05:17:23;;;;;;;4.20;3.35;;;16.20;99.90;;;;;;1923628;74;21043;-76
2021/07/18 05:19:49;;;;;;;11.12;2.90;;;16.30;99.90;;;;;;1923613;73;21051;-76
2021/07/18 05:22:15;;;;;;;3.15;2.60;;;16.30;99.90;;;;;;1923864;74;21454;-76
2021/07/18 05:24:41;;;;;;;4.83;2.70;;;16.40;99.90;;;;;;1923559;74;21060;-76
2021/07/18 05:27:07;;;;;;;4.47;2.50;;;16.40;99.90;;;;;;1923427;74;21516;-75
2021/07/18 05:29:34;;;;;;;2.75;2.50;;;16.50;99.90;;;;;;1923730;74;21482;-76
2021/07/18 05:32:00;;;;;;;3.02;2.00;;;16.70;99.90;;;;;;1923745;74;21516;-75
2021/07/18 05:34:28;;;;;;;4.58;2.58;;;17.10;99.90;;;;;;1923800;74;21460;-77
2021/07/18 05:36:54;;;;;;;2.45;2.25;;;17.40;99.90;;;;;;1923751;74;21126;-76
2021/07/18 05:39:20;;;;;;;2.47;2.12;;;17.60;99.90;;;;;;1924008;73;21282;-77
2021/07/18 05:41:46;;;;;;;6.75;2.20;;;17.70;99.90;;;;;;1923982;74;21160;-76
2021/07/18 05:44:12;;;;;;;4.58;1.65;;;17.80;99.90;;;;;;1923842;74;21078;-77
2021/07/18 05:46:38;;;;;;;4.42;2.00;;;18.00;99.90;;;;;;1924014;74;21172;-77
2021/07/18 05:49:04;;;;;;;2.45;1.70;;;18.20;99.90;;;;;;1923958;73;21489;-78
2021/07/18 05:51:30;;;;;;;6.15;1.55;;;18.30;99.90;;;;;;1923824;74;21082;-77
2021/07/18 05:53:56;;;;;;;5.33;1.82;;;18.60;99.90;;;;;;1926493;74;21095;-76
2021/07/18 05:56:23;;;;;;;4.37;1.70;;;19.60;99.90;;;;;;1926842;74;21031;-75
2021/07/18 05:58:49;;;;;;;3.12;1.45;;;20.80;99.90;;;;;;1924707;74;21430;-75
2021/07/18 06:01:15;;;;;;;4.45;1.85;;;21.50;99.90;;;;;;1923873;73;21600;-74
2021/07/18 06:03:41;;;;;;;2.45;1.37;;;22.40;99.90;;;;;;1923688;74;21526;-73
2021/07/18 06:06:07;;;;;;;1.82;1.50;;;22.70;99.90;;;;;;1923542;74;21068;-75
2021/07/18 06:08:33;;;;;;;8.55;1.50;;;23.60;99.90;;;;;;1923690;73;21066;-76
2021/07/18 06:10:59;;;;;;;2.20;1.35;;;24.00;99.90;;;;;;1923633;73;21071;-76
2021/07/18 06:13:25;;;;;;;5.15;1.80;;;23.60;99.90;;;;;;1923732;74;21067;-77
2021/07/18 06:15:52;;;;;;;8.15;1.60;;;23.80;99.90;;;;;;1923515;74;21040;-74
2021/07/18 06:18:18;;;;;;;3.67;1.45;;;23.70;99.90;;;;;;1923572;74;21078;-78
2021/07/18 06:20:44;;;;;;;2.17;1.00;;;24.00;99.90;;;;;;1923634;74;21095;-77
2021/07/18 06:23:10;;;;;;;4.20;1.30;;;24.70;99.90;;;;;;1923490;74;21063;-78
2021/07/18 06:25:36;;;;;;;5.20;1.50;;;24.80;99.90;;;;;;1923495;74;21011;-77
2021/07/18 06:28:02;;;;;;;10.90;1.42;;;24.90;99.90;;;;;;1923554;74;21063;-77
2021/07/18 06:30:28;;;;;;;2.65;1.40;;;25.30;99.90;;;;;;1923512;74;21136;-78
2021/07/18 06:32:54;;;;;;;9.78;1.10;;;25.10;99.90;;;;;;1923667;74;21136;-77
2021/07/18 06:35:21;;;;;;;2.67;1.30;;;25.00;99.90;;;;;;1923671;74;21090;-76
2021/07/18 06:37:47;;;;;;;6.42;1.37;;;24.80;99.90;;;;;;1923663;74;21152;-77
2021/07/18 06:40:13;;;;;;;4.70;1.42;;;25.30;99.90;;;;;;1923824;74;21132;-76
2021/07/18 06:42:39;;;;;;;2.30;1.12;;;24.70;99.90;;;;;;1923714;74;21070;-77
2021/07/18 06:45:05;;;;;;;1.85;1.15;;;24.30;99.90;;;;;;1923939;74;21035;-77
2021/07/18 06:47:31;;;;;;;3.42;1.30;;;23.80;99.90;;;;;;1923876;74;21114;-76
2021/07/18 06:49:57;;;;;;;4.45;1.30;;;24.00;99.90;;;;;;1923732;73;21144;-76
2021/07/18 06:52:23;;;;;;;6.08;1.30;;;24.60;99.90;;;;;;1923604;74;21552;-77
2021/07/18 06:54:50;;;;;;;2.47;1.00;;;24.60;99.90;;;;;;1923462;74;21516;-76
2021/07/18 06:57:16;;;;;;;6.03;1.30;;;25.30;99.90;;;;;;1923665;74;21497;-76
2021/07/18 06:59:42;;;;;;;1.80;0.80;;;25.40;99.90;;;;;;1923571;73;21628;-76
2021/07/18 07:02:08;;;;;;;3.10;1.12;;;25.40;99.90;;;;;;1923872;74;21467;-75
2021/07/18 07:04:34;;;;;;;2.20;1.00;;;24.40;99.90;;;;;;1923523;74;21610;-75
2021/07/18 07:07:00;;;;;;;2.85;1.30;;;24.30;99.90;;;;;;1923647;74;21055;-75
2021/07/18 07:09:26;;;;;;;3.20;0.82;;;25.10;99.90;;;;;;1923644;74;21128;-74
2021/07/18 07:11:52;;;;;;;10.03;1.52;;;25.40;99.90;;;;;;1923711;74;21087;-76
2021/07/18 07:14:19;;;;;;;13.65;0.90;;;25.60;99.90;;;;;;1923702;74;21083;-75
2021/07/18 07:16:45;;;;;;;3.58;1.27;;;25.80;99.90;;;;;;1923538;74;21149;-76
2021/07/18 07:19:11;;;;;;;1.75;0.85;;;25.90;99.90;;;;;;1923665;74;21142;-76
2021/07/18 07:21:37;;;;;;;2.85;1.22;;;25.40;99.90;;;;;;1923545;73;21177;-75
2021/07/18 07:24:03;;;;;;;6.50;1.02;;;25.70;99.90;;;;;;1923703;74;21043;-75
2021/07/18 07:26:29;;;;;;;16.70;1.57;;;25.00;99.90;;;;;;1923640;73;21192;-74
2021/07/18 07:28:55;;;;;;;2.02;1.22;;;23.30;99.90;;;;;;1923664;73;21082;-74
2021/07/18 07:31:21;;;;;;;2.90;1.02;;;23.50;99.90;;;;;;1923671;74;21205;-74
2021/07/18 07:33:48;;;;;;;1.40;0.90;;;24.00;99.90;;;;;;1923599;74;21095;-75
2021/07/18 07:36:14;;;;;;;11.30;1.12;;;24.70;99.90;;;;;;1921299;74;21145;-74
2021/07/18 07:38:40;;;;;;;7.60;1.20;;;25.20;99.90;;;;;;1923684;74;21143;-74
2021/07/18 07:41:06;;;;;;;3.10;1.10;;;24.10;99.90;;;;;;1924339;73;21150;-74
2021/07/18 07:43:32;;;;;;;1.62;1.10;;;23.60;99.90;;;;;;1923926;74;21111;-74
2021/07/18 07:45:58;;;;;;;4.37;1.32;;;23.60;99.90;;;;;;1924103;74;21076;-74
2021/07/18 07:48:25;;;;;;;7.87;1.42;;;23.50;99.90;;;;;;1923651;74;21108;-74
2021/07/18 07:50:51;;;;;;;4.72;1.40;;;23.90;99.90;;;;;;1923750;74;21121;-75
2021/07/18 07:53:17;;;;;;;2.80;1.30;;;24.20;99.90;;;;;;1923788;74;21106;-74
2021/07/18 07:55:43;;;;;;;3.65;1.17;;;24.70;99.90;;;;;;1923564;74;21107;-75
2021/07/18 07:58:10;;;;;;;6.33;1.45;;;24.70;99.90;;;;;;1923748;74;21160;-74
2021/07/18 08:00:38;;;;;;;4.87;1.67;;;23.60;99.90;;;;;;1924242;74;21115;-75
2021/07/18 08:03:03;;;;;;;5.75;1.30;;;23.40;99.90;;;;;;1923853;74;21181;-75
2021/07/18 08:05:30;;;;;;;3.08;1.30;;;23.60;99.90;;;;;;1923796;74;21071;-74
2021/07/18 08:07:56;;;;;;;2.70;1.42;;;23.20;99.90;;;;;;1923652;73;21523;-75
2021/07/18 08:10:22;;;;;;;2.60;1.40;;;23.30;99.90;;;;;;1923720;74;21525;-75
2021/07/18 08:12:48;;;;;;;3.45;1.55;;;23.90;99.90;;;;;;1923872;74;21451;-75
2021/07/18 08:15:14;;;;;;;6.40;1.40;;;24.60;99.90;;;;;;1923845;74;21474;-73
2021/07/18 08:17:40;;;;;;;5.50;1.60;;;23.30;99.90;;;;;;1923786;74;21254;-74
2021/07/18 08:20:07;;;;;;;6.97;1.30;;;23.30;99.90;;;;;;1923942;74;21551;-72
2021/07/18 08:22:33;;;;;;;5.28;1.27;;;23.60;99.90;;;;;;1923619;74;21166;-73
2021/07/18 08:24:59;;;;;;;2.67;1.10;;;23.50;99.90;;;;;;1923733;74;21050;-74
2021/07/18 08:27:25;;;;;;;5.90;2.08;;;23.50;99.90;;;;;;1923486;74;21132;-81
2021/07/18 08:29:51;;;;;;;5.40;1.90;;;24.00;99.90;;;;;;1923467;74;21144;-77
2021/07/18 08:32:17;;;;;;;2.37;1.35;;;24.30;99.90;;;;;;1923593;74;21148;-76
2021/07/18 08:34:43;;;;;;;2.92;1.42;;;23.80;99.90;;;;;;1923470;74;21071;-74
2021/07/18 08:37:09;;;;;;;12.35;1.62;;;24.00;99.90;;;;;;1923802;74;21071;-76
2021/07/18 08:39:36;;;;;;;4.55;1.70;;;23.40;99.90;;;;;;1923725;73;21088;-74
2021/07/18 08:42:02;;;;;;;5.62;1.52;;;23.90;99.90;;;;;;1923522;74;21140;-73
2021/07/18 08:44:28;;;;;;;2.33;1.62;;;23.90;99.90;;;;;;1923650;74;21136;-73
2021/07/18 08:46:54;;;;;;;2.55;1.55;;;23.80;99.90;;;;;;1923657;74;21157;-74
2021/07/18 08:49:20;;;;;;;2.98;1.70;;;23.40;99.90;;;;;;1923462;74;21096;-73
2021/07/18 08:51:46;;;;;;;6.72;1.30;;;22.40;99.90;;;;;;1923572;73;21071;-72
2021/07/18 08:54:12;;;;;;;5.75;1.50;;;22.80;99.90;;;;;;1923665;74;21070;-72
2021/07/18 08:56:38;;;;;;;3.55;1.60;;;23.80;99.90;;;;;;1923480;74;21132;-72
2021/07/18 08:59:05;;;;;;;9.45;1.60;;;24.40;99.90;;;;;;1923266;73;21079;-78
2021/07/18 09:01:31;;;;;;;2.33;1.47;;;24.20;99.90;;;;;;1923829;74;21597;-79
2021/07/18 09:03:58;;;;;;;3.40;1.55;;;24.40;99.90;;;;;;1923560;74;21498;-76
2021/07/18 09:06:24;;;;;;;8.60;1.70;;;24.30;99.90;;;;;;1923504;74;21523;-78
2021/07/18 09:08:50;;;;;;;4.40;1.67;;;24.60;99.90;;;;;;1923777;73;21078;-79
2021/07/18 09:11:16;;;;;;;7.05;1.90;;;25.00;99.90;;;;;;1923980;73;21047;-78
2021/07/18 09:13:42;;;;;;;1.85;1.30;;;24.60;99.90;;;;;;1924219;73;21047;-81
2021/07/18 09:16:10;;;;;;;4.15;1.75;;;25.00;99.90;;;;;;1923756;74;21155;-81
2021/07/18 09:18:36;;;;;;;6.83;1.70;;;25.30;99.90;;;;;;1924025;74;21144;-77
2021/07/18 09:21:02;;;;;;;5.47;1.45;;;25.70;99.90;;;;;;1924056;73;21191;-78
2021/07/18 09:23:31;;;;;;;9.73;1.62;;;25.70;99.90;;;;;;1924017;74;21151;-81
2021/07/18 09:25:57;;;;;;;2.40;1.60;;;26.20;99.90;;;;;;1923968;74;21071;-78
2021/07/18 09:28:23;;;;;;;13.60;1.70;;;25.20;99.90;;;;;;1923958;73;21269;-76
2021/07/18 09:30:50;;;;;;;2.90;1.70;;;24.60;99.90;;;;;;1923736;74;21090;-74
2021/07/18 09:33:16;;;;;;;6.47;1.65;;;24.90;99.90;;;;;;1923916;74;21047;-75
2021/07/18 09:35:43;;;;;;;2.65;1.47;;;25.20;99.90;;;;;;1923997;74;21099;-74
2021/07/18 09:38:09;;;;;;;5.87;1.65;;;25.10;99.90;;;;;;1923981;74;21039;-74
2021/07/18 09:40:39;;;;;;;11.60;1.70;;;25.30;99.90;;;;;;1924035;74;21070;-74
2021/07/18 09:43:03;;;;;;;4.83;1.75;;;25.00;99.90;;;;;;1924011;74;21487;-74
2021/07/18 09:45:33;;;;;;;4.62;1.45;;;24.90;99.90;;;;;;1924143;74;21079;-74
2021/07/18 09:47:57;;;;;;;3.20;1.72;;;24.90;99.90;;;;;;1923476;74;21193;-75
2021/07/18 09:50:23;;;;;;;7.87;1.82;;;25.20;99.90;;;;;;1925000;73;21111;-74
2021/07/18 09:52:49;;;;;;;4.33;1.67;;;25.80;99.90;;;;;;1924695;74;21152;-76
2021/07/18 09:55:15;;;;;;;8.85;1.52;;;25.60;99.90;;;;;;1923970;74;21168;-74
2021/07/18 09:57:41;;;;;;;7.70;1.80;;;25.70;99.90;;;;;;1923732;74;21129;-74
2021/07/18 10:00:07;;;;;;;2.85;1.60;;;25.40;99.90;;;;;;1923119;74;21015;-74
2021/07/18 10:02:33;;;;;;;6.87;1.75;;;25.80;99.90;;;;;;1923558;74;21087;-73
2021/07/18 10:05:00;;;;;;;3.83;1.35;;;25.40;99.90;;;;;;1923677;74;21063;-77
2021/07/18 10:07:26;;;;;;;2.90;1.30;;;25.50;99.90;;;;;;1923671;74;21078;-77
2021/07/18 10:09:52;;;;;;;3.72;1.65;;;26.10;99.90;;;;;;1923231;74;21109;-80
2021/07/18 10:12:18;;;;;;;2.20;1.45;;;26.50;99.90;;;;;;1923649;74;21071;-78
2021/07/18 10:14:44;;;;;;;3.33;1.70;;;26.90;99.90;;;;;;1923679;74;21136;-79
2021/07/18 10:17:11;;;;;;;14.00;2.00;;;26.40;99.90;;;;;;1921106;74;21160;-79
2021/07/18 10:19:37;;;;;;;12.55;1.67;;;26.60;99.90;;;;;;1921861;74;21086;-79
2021/07/18 10:22:03;;;;;;;3.85;1.47;;;27.00;99.90;;;;;;1923440;74;21104;-77
2021/07/18 10:24:29;;;;;;;5.47;1.40;;;26.40;99.90;;;;;;1927291;73;21016;-81
2021/07/18 10:26:58;;;;;;;4.47;1.52;;;25.90;99.90;;;;;;1924166;74;21047;-80
2021/07/18 10:29:23;;;;;;;1.72;1.35;;;25.80;99.90;;;;;;1923583;74;21491;-81
2021/07/18 10:31:54;;;;;;;10.45;1.40;;;25.90;99.90;;;;;;1923586;74;21526;-81
2021/07/18 10:34:24;;;;;;;3.52;1.80;;;25.80;99.90;;;;;;1923379;74;21099;-83
2021/07/18 10:36:55;;;;;;;5.10;1.75;;;26.30;99.90;;;;;;1922957;73;21177;-77
2021/07/18 10:39:24;;;;;;;3.08;1.42;;;26.30;99.90;;;;;;1923467;74;21185;-79
2021/07/18 10:41:55;;;;;;;5.20;1.50;;;26.50;99.90;;;;;;1923304;74;21181;-80
2021/07/18 10:44:25;;;;;;;5.42;1.42;;;26.60;99.90;;;;;;1922472;74;21200;-79
2021/07/18 10:46:53;;;;;;;2.12;1.30;;;26.10;99.90;;;;;;1924490;74;21578;-79
2021/07/18 10:49:20;;;;;;;6.20;1.77;;;26.40;99.90;;;;;;1923923;74;21074;-80
2021/07/18 10:51:46;;;;;;;6.90;1.60;;;26.40;99.90;;;;;;1923525;73;21152;-78
2021/07/18 10:54:13;;;;;;;2.33;1.30;;;26.50;99.90;;;;;;1923451;74;21199;-79
2021/07/18 10:56:39;;;;;;;3.50;1.60;;;26.50;99.90;;;;;;1923513;73;21040;-79
2021/07/18 10:59:07;;;;;;;2.40;1.65;;;27.10;99.90;;;;;;1923518;74;21199;-78
2021/07/18 11:01:34;;;;;;;9.50;1.47;;;26.70;99.90;;;;;;1923500;74;21071;-81
2021/07/18 11:04:00;;;;;;;3.98;1.30;;;26.60;99.90;;;;;;1923645;74;21157;-80
2021/07/18 11:06:27;;;;;;;2.27;1.57;;;26.50;99.90;;;;;;1923493;74;21086;-81
2021/07/18 11:08:53;;;;;;;8.50;1.40;;;26.90;99.90;;;;;;1923604;73;21066;-78
2021/07/18 11:11:19;;;;;;;3.37;1.25;;;26.40;99.90;;;;;;1923585;74;21140;-77
2021/07/18 11:13:46;;;;;;;4.97;1.57;;;27.10;99.90;;;;;;1923572;74;21066;-79
2021/07/18 11:16:12;;;;;;;2.27;1.50;;;27.50;99.90;;;;;;1923526;74;21086;-78
2021/07/18 11:18:38;;;;;;;7.45;1.62;;;27.90;99.90;;;;;;1923494;74;21152;-78
2021/07/18 11:21:06;;;;;;;3.45;1.62;;;28.00;99.90;;;;;;1923028;74;21081;-80
2021/07/18 11:23:33;;;;;;;6.58;1.40;;;28.30;99.90;;;;;;1923502;74;21106;-81
2021/07/18 11:25:59;;;;;;;6.22;1.40;;;28.60;99.90;;;;;;1923482;74;21462;-78
2021/07/18 11:28:25;;;;;;;2.85;1.20;;;28.50;99.90;;;;;;1923476;74;21067;-81
2021/07/18 11:30:51;;;;;;;2.05;1.40;;;28.60;99.90;;;;;;1923654;74;21118;-80
2021/07/18 11:33:18;;;;;;;2.58;1.30;;;28.30;99.90;;;;;;1923786;74;21039;-79
2021/07/18 11:35:44;;;;;;;1.42;1.27;;;27.90;99.90;;;;;;1924167;74;21198;-78
2021/07/18 11:38:10;;;;;;;2.30;1.40;;;27.70;99.90;;;;;;1924839;74;21128;-79
2021/07/18 11:40:36;;;;;;;4.03;1.80;;;27.60;99.90;;;;;;1924137;74;21628;-78
2021/07/18 11:43:02;;;;;;;1.85;1.30;;;26.90;99.90;;;;;;1923882;74;21074;-79
2021/07/18 11:45:28;;;;;;;5.72;1.77;;;27.20;99.90;;;;;;1923861;73;21059;-80
2021/07/18 11:47:55;;;;;;;5.33;2.25;;;27.60;99.90;;;;;;1921372;74;21047;-80
2021/07/18 11:50:21;;;;;;;2.42;1.42;;;27.20;99.90;;;;;;1922349;73;21059;-81
2021/07/18 11:52:47;;;;;;;8.03;1.82;;;27.40;99.90;;;;;;1923559;74;21148;-81
2021/07/18 11:55:13;;;;;;;3.05;1.37;;;27.50;99.90;;;;;;1922569;73;21090;-80
2021/07/18 11:57:39;;;;;;;2.65;1.65;;;27.50;99.90;;;;;;1923690;74;21451;-79
2021/07/18 12:00:05;;;;;;;14.28;1.72;;;27.70;99.90;;;;;;1923093;73;21443;-80
2021/07/18 12:02:31;;;;;;;4.47;1.62;;;27.90;99.90;;;;;;1923477;74;21482;-80
2021/07/18 12:04:58;;;;;;;2.92;1.42;;;28.00;99.90;;;;;;1923572;74;21454;-79
2021/07/18 12:07:24;;;;;;;11.53;2.12;;;28.50;99.90;;;;;;1923504;73;21491;-79
2021/07/18 12:09:50;;;;;;;3.40;1.70;;;28.20;99.90;;;;;;1923641;74;21082;-79
2021/07/18 12:12:16;;;;;;;1.52;1.25;;;28.30;99.90;;;;;;1923696;74;21071;-79
2021/07/18 12:14:42;;;;;;;4.22;1.50;;;28.80;99.90;;;;;;1923596;74;21283;-80
2021/07/18 12:17:08;;;;;;;2.55;1.52;;;28.70;99.90;;;;;;1923642;74;21074;-80
2021/07/18 12:19:35;;;;;;;2.45;1.42;;;28.80;99.90;;;;;;1923694;74;21062;-81
2021/07/18 12:22:01;;;;;;;4.05;1.72;;;28.70;99.90;;;;;;1923681;74;21146;-80
2021/07/18 12:24:28;;;;;;;2.98;1.60;;;28.60;99.90;;;;;;1923849;74;21152;-79
2021/07/18 12:26:54;;;;;;;16.32;1.90;;;29.10;99.90;;;;;;1923701;74;21518;-78
2021/07/18 12:29:20;;;;;;;2.05;1.77;;;29.00;99.90;;;;;;1923594;74;21548;-78
2021/07/18 12:31:46;;;;;;;4.72;1.80;;;28.40;99.90;;;;;;1923630;74;21478;-77
2021/07/18 12:34:12;;;;;;;2.33;1.75;;;29.00;99.90;;;;;;1923752;74;21114;-78
2021/07/18 12:36:38;;;;;;;4.47;2.10;;;29.80;99.90;;;;;;1923516;74;21108;-78
2021/07/18 12:39:04;;;;;;;6.78;2.67;;;29.80;99.90;;;;;;1923565;74;21074;-78
2021/07/18 12:41:31;;;;;;;6.65;2.62;;;30.20;99.90;;;;;;1923428;74;21132;-78
2021/07/18 12:43:57;;;;;;;4.92;2.37;;;30.00;99.90;;;;;;1923538;74;21038;-78
2021/07/18 12:46:23;;;;;;;3.75;2.47;;;30.50;99.90;;;;;;1923557;74;21102;-78